Falls Of Rough, Kentucky
Current Conditions -  °F | °C
As of 4:58 PM on Wednesday 17 Dec 2014 (Local Time) from KFTK Reporting Station
Overcast Overcast  
Wind Chill: 28°   Ceiling: 2300
Heat Index: 32°   Visibility: 10mi
Dew Point: 25°   Wind: 5mph
Humidity: 75%   Direction: 310°NW
Pressure: 30.24"   Gusts: NA
Location:  37.57°N, 86.48°W
Report Text: KFTK 172258Z AUTO 31004KT 10SM OVC023 00/M04 A3024 RMK AO2 SLP250 T00011039
Loading
Personal Weather Stations






























Interactive Weather Map New forecast layout! Learn more

10-Day Weather Forecast

Advertisements
Track Severe Weather on mobile